createdAt,value
2022-08-23T00:07:16.684Z,100.00
2022-08-23T00:17:31.111Z,100.00
2022-08-23T00:27:38.335Z,100.00
2022-08-23T00:37:41.402Z,100.00
2022-08-23T00:47:45.170Z,100.00
2022-08-23T00:57:48.479Z,100.00
2022-08-23T01:07:56.121Z,100.00
2022-08-23T01:18:05.359Z,100.00
2022-08-23T01:28:08.461Z,100.00
2022-08-23T01:38:12.497Z,100.00
2022-08-23T01:48:17.939Z,100.00
2022-08-23T01:58:21.526Z,100.00
2022-08-23T02:08:43.673Z,100.00
2022-08-23T02:18:47.669Z,100.00
2022-08-23T02:28:58.287Z,100.00
2022-08-23T02:39:01.672Z,100.00
2022-08-23T02:49:04.839Z,100.00
2022-08-23T02:59:08.118Z,100.00
2022-08-23T03:09:11.459Z,100.00
2022-08-23T03:19:14.518Z,100.00
2022-08-23T03:29:25.501Z,100.00
2022-08-23T03:39:30.357Z,100.00
2022-08-23T03:49:34.656Z,100.00
2022-08-23T03:59:41.031Z,100.00
2022-08-23T04:09:44.498Z,100.00
2022-08-23T04:19:49.480Z,100.00
2022-08-23T04:29:53.110Z,100.00
2022-08-23T04:40:19.507Z,100.00
2022-08-23T04:50:22.715Z,100.00
2022-08-23T05:00:32.547Z,100.00
2022-08-23T05:10:35.904Z,100.00
2022-08-23T05:20:39.490Z,100.00
2022-08-23T05:30:42.834Z,100.00
2022-08-23T05:41:02.165Z,100.00
2022-08-23T05:51:32.319Z,100.00
2022-08-23T06:01:55.384Z,100.00
2022-08-23T06:12:18.677Z,100.00
2022-08-23T06:22:42.213Z,100.00
2022-08-23T06:32:45.498Z,100.00
2022-08-23T06:42:54.969Z,100.00
2022-08-23T06:53:01.460Z,100.00
2022-08-23T07:03:10.790Z,100.00
2022-08-23T07:13:18.633Z,97.94
2022-08-23T07:23:21.869Z,97.14
2022-08-23T07:33:25.367Z,95.24
2022-08-23T07:43:34.309Z,86.14
2022-08-23T07:53:39.757Z,85.04
2022-08-23T08:03:51.093Z,78.65
2022-08-23T08:13:55.104Z,79.02
2022-08-23T08:23:58.880Z,75.25
2022-08-23T08:34:04.006Z,69.56
2022-08-23T08:44:33.175Z,67.49
2022-08-23T08:54:38.024Z,68.50
2022-08-23T09:04:41.217Z,65.80
2022-08-23T09:15:21.130Z,68.16
2022-08-23T09:25:24.917Z,72.10
2022-08-23T09:35:29.009Z,63.61
2022-08-23T09:45:36.594Z,61.98
2022-08-23T09:55:44.908Z,57.92
2022-08-23T10:05:56.068Z,59.96
2022-08-23T10:16:00.179Z,57.33
2022-08-23T10:26:10.904Z,58.49
2022-08-23T10:36:20.433Z,60.43
2022-08-23T10:46:24.025Z,58.25
2022-08-23T10:56:29.707Z,55.16
2022-08-23T11:06:35.712Z,58.36
2022-08-23T11:16:46.107Z,59.94
2022-08-23T11:26:52.607Z,54.60
2022-08-23T11:37:21.139Z,46.96
2022-08-23T11:47:44.577Z,48.76
2022-08-23T11:58:16.316Z,46.68
2022-08-23T12:08:38.248Z,48.38
2022-08-23T12:18:47.839Z,52.03
2022-08-23T12:28:57.838Z,48.82
2022-08-23T12:39:21.240Z,48.61
2022-08-23T12:49:29.658Z,49.31
2022-08-23T13:00:33.936Z,48.49
2022-08-23T13:10:40.360Z,48.15
2022-08-23T13:20:43.584Z,49.25
2022-08-23T13:31:00.455Z,47.99
2022-08-23T13:41:08.859Z,51.37
2022-08-23T13:51:32.842Z,48.89
2022-08-23T14:01:36.300Z,49.87
2022-08-23T14:11:39.648Z,51.37
2022-08-23T14:21:42.690Z,51.94
2022-08-23T14:31:46.363Z,49.88
2022-08-23T14:41:52.288Z,53.08
2022-08-23T14:51:55.394Z,51.94
2022-08-23T15:01:58.918Z,53.89
2022-08-23T15:22:25.976Z,55.01
2022-08-23T15:32:29.170Z,55.38
2022-08-23T15:42:36.097Z,55.75
2022-08-23T15:52:39.103Z,55.33
2022-08-23T16:03:06.389Z,57.93
2022-08-23T16:13:05.372Z,57.56
2022-08-23T16:23:08.353Z,58.52
2022-08-23T16:33:11.413Z,58.74
2022-08-23T16:43:14.549Z,59.46
2022-08-23T16:53:17.720Z,60.08
2022-08-23T17:03:21.281Z,60.32
2022-08-23T17:13:24.302Z,61.74
2022-08-23T17:23:27.259Z,63.76
2022-08-23T17:33:30.376Z,64.57
2022-08-23T17:43:33.977Z,67.51
2022-08-23T17:53:36.902Z,70.40
2022-08-23T18:03:40.235Z,71.62
2022-08-23T18:13:45.613Z,76.44
2022-08-23T18:23:48.779Z,75.48
2022-08-23T18:33:51.824Z,77.80
2022-08-23T18:43:54.901Z,79.00
2022-08-23T18:53:59.325Z,83.21
2022-08-23T19:04:04.267Z,86.17
2022-08-23T19:14:10.984Z,87.20
2022-08-23T19:24:14.402Z,89.67
2022-08-23T19:34:21.153Z,88.86
2022-08-23T19:44:24.854Z,89.53
2022-08-23T19:54:28.367Z,83.23
2022-08-23T20:04:33.542Z,82.57
2022-08-23T20:14:37.287Z,83.08
2022-08-23T20:24:50.862Z,83.80
2022-08-23T20:34:55.105Z,82.56
2022-08-23T20:44:58.292Z,84.87
2022-08-23T20:55:01.348Z,81.50
2022-08-23T21:05:06.526Z,81.07
2022-08-23T21:15:11.273Z,83.20
2022-08-23T21:25:15.003Z,84.17
2022-08-23T21:35:18.260Z,85.36
2022-08-23T21:45:21.359Z,84.67
2022-08-23T21:55:36.025Z,89.59
2022-08-23T22:05:41.709Z,95.12
2022-08-23T22:15:44.687Z,98.70
2022-08-23T22:25:48.075Z,100.00
2022-08-23T22:35:51.299Z,100.00
2022-08-23T22:45:57.278Z,100.00
2022-08-23T22:56:00.358Z,100.00
2022-08-23T23:06:03.421Z,100.00
2022-08-23T23:16:10.856Z,100.00
2022-08-23T23:26:13.917Z,100.00
2022-08-23T23:36:17.476Z,100.00
2022-08-23T23:46:21.019Z,100.00
2022-08-23T23:56:25.810Z,100.00
